Time;durP1;ratioP1;P1;durP2;ratioP2;P2;SDS_P1;SDS_P2;PMS_P1;PMS_P2;Temp;Humidity;BMP_temperature;BMP_pressure;BME280_temperature;BME280_humidity;BME280_pressure;Samples;Min_cycle;Max_cycle;Signal;HPM_P1;HPM_P2
2023/04/27 00:02:05;;;;;;;7.20;3.72;;;;;;;7.38;48.37;99280.41;4365580;32;34016;-92
2023/04/27 00:04:33;;;;;;;8.60;4.00;;;;;;;7.05;47.11;99275.22;4371012;32;34183;-84
2023/04/27 00:07:01;;;;;;;10.70;4.22;;;;;;;7.24;47.42;99282.66;4371616;32;32303;-83
2023/04/27 00:09:28;;;;;;;7.37;4.12;;;;;;;7.46;47.60;99280.62;4372663;32;32999;-85
2023/04/27 00:11:56;;;;;;;8.90;4.62;;;;;;;7.63;48.27;99283.66;4348276;32;33945;-93
2023/04/27 00:14:27;;;;;;;9.18;4.10;;;;;;;7.49;48.40;99286.75;4362455;32;34940;-90
2023/04/27 00:16:55;;;;;;;7.07;3.90;;;;;;;7.50;48.59;99279.88;4362627;32;34955;-87
2023/04/27 00:19:22;;;;;;;7.62;3.90;;;;;;;7.74;48.64;99290.84;4383304;32;33806;-94
2023/04/27 00:21:50;;;;;;;8.20;4.45;;;;;;;7.68;48.54;99288.09;4381341;32;34000;-92
2023/04/27 00:24:17;;;;;;;7.35;3.83;;;;;;;7.83;48.62;99284.19;4371307;32;34173;-91
2023/04/27 00:26:45;;;;;;;8.00;3.75;;;;;;;7.61;49.00;99285.31;4373569;32;35022;-87
2023/04/27 00:29:12;;;;;;;5.70;4.07;;;;;;;7.54;48.80;99279.16;4364268;32;33581;-90
2023/04/27 00:31:40;;;;;;;7.95;4.00;;;;;;;7.71;48.58;99280.44;4369434;32;32391;-91
2023/04/27 00:34:08;;;;;;;7.70;4.37;;;;;;;7.73;48.58;99285.66;4365068;32;33569;-85
2023/04/27 00:36:36;;;;;;;6.35;3.85;;;;;;;7.42;48.99;99282.25;4367093;32;34919;-85
2023/04/27 00:39:05;;;;;;;8.45;3.70;;;;;;;7.53;48.71;99280.84;4369771;32;33625;-88
2023/04/27 00:41:36;;;;;;;6.12;3.53;;;;;;;7.50;49.26;99283.34;4362114;32;33324;-85
2023/04/27 00:44:04;;;;;;;11.12;4.40;;;;;;;7.54;49.75;99287.75;4366358;32;34060;-87
2023/04/27 00:46:32;;;;;;;5.97;3.35;;;;;;;7.38;49.99;99279.56;4374450;32;34279;-86
2023/04/27 00:49:00;;;;;;;8.65;4.05;;;;;;;7.41;49.78;99283.09;4354739;32;33887;-91
2023/04/27 00:51:29;;;;;;;8.05;4.25;;;;;;;7.48;49.50;99284.13;4359296;32;33935;-84
2023/04/27 00:53:57;;;;;;;7.95;3.70;;;;;;;7.31;49.79;99281.06;4360100;32;33613;-84
2023/04/27 00:56:25;;;;;;;7.30;3.80;;;;;;;7.40;49.64;99283.06;4373532;32;34041;-92
2023/04/27 00:58:54;;;;;;;8.25;4.12;;;;;;;7.43;49.56;99281.44;4368627;32;34658;-84
2023/04/27 01:01:22;;;;;;;8.43;4.87;;;;;;;7.14;50.16;99278.03;4370597;32;34040;-91
2023/04/27 01:03:50;;;;;;;7.07;4.10;;;;;;;7.04;49.98;99276.03;4368545;32;34565;-84
2023/04/27 01:06:18;;;;;;;6.93;4.07;;;;;;;7.19;50.02;99278.16;4349832;32;33808;-89
2023/04/27 01:08:45;;;;;;;7.70;4.32;;;;;;;7.20;49.79;99270.50;4371584;32;33824;-93
2023/04/27 01:11:13;;;;;;;6.37;3.53;;;;;;;7.43;49.23;99278.00;4355059;32;33626;-85
2023/04/27 01:13:40;;;;;;;6.97;3.95;;;;;;;7.14;49.76;99278.03;4370148;32;34358;-85
2023/04/27 01:16:08;;;;;;;7.22;4.10;;;;;;;7.22;50.01;99275.69;4352198;32;34845;-86
2023/04/27 01:18:39;;;;;;;9.43;4.32;;;;;;;7.25;50.27;99281.81;4364973;32;33699;-91
2023/04/27 01:21:07;;;;;;;9.25;4.37;;;;;;;7.09;50.34;99277.06;4367695;32;34329;-85
2023/04/27 01:23:34;;;;;;;6.37;3.83;;;;;;;7.10;50.34;99283.94;4375412;32;34999;-84
2023/04/27 01:26:03;;;;;;;8.35;4.20;;;;;;;7.01;50.46;99279.41;4348300;32;34847;-93
2023/04/27 01:28:30;;;;;;;8.45;4.18;;;;;;;7.37;49.71;99280.41;4361819;32;34391;-83
2023/04/27 01:30:59;;;;;;;8.10;4.37;;;;;;;7.03;50.24;99289.75;4370505;32;33934;-92
2023/04/27 01:33:27;;;;;;;7.70;4.18;;;;;;;6.86;50.83;99290.97;4366303;32;35069;-85
2023/04/27 01:35:54;;;;;;;8.20;4.35;;;;;;;6.90;50.96;99291.13;4355363;32;33716;-90
2023/04/27 01:38:23;;;;;;;10.20;4.30;;;;;;;6.96;50.84;99291.28;4372635;32;33648;-91
2023/04/27 01:40:54;;;;;;;6.85;3.80;;;;;;;6.74;51.23;99289.81;4375685;32;33931;-92
2023/04/27 01:43:21;;;;;;;6.35;3.85;;;;;;;6.97;51.19;99299.87;4371151;32;35189;-95
2023/04/27 01:45:48;;;;;;;9.27;4.03;;;;;;;7.01;50.86;99297.47;4368168;32;34703;-91
2023/04/27 01:48:16;;;;;;;8.38;4.15;;;;;;;7.00;50.79;99298.25;4374777;32;33307;-93
2023/04/27 01:50:43;;;;;;;8.57;4.60;;;;;;;6.86;51.06;99306.41;4375088;32;33663;-86
2023/04/27 01:53:11;;;;;;;6.57;3.75;;;;;;;6.78;51.38;99299.37;4369692;32;33851;-89
2023/04/27 01:55:39;;;;;;;7.37;3.92;;;;;;;6.95;51.31;99305.00;4348392;32;33799;-90
2023/04/27 01:58:06;;;;;;;7.55;4.40;;;;;;;6.95;51.08;99302.44;4371966;32;33226;-86
2023/04/27 02:00:33;;;;;;;6.57;4.07;;;;;;;6.89;51.37;99299.66;4352213;32;34832;-94
2023/04/27 02:03:02;;;;;;;7.95;3.58;;;;;;;6.72;51.40;99300.87;4369827;32;33838;-91
2023/04/27 02:05:30;;;;;;;8.02;4.05;;;;;;;6.95;51.08;99298.97;4369146;32;34822;-88
2023/04/27 02:07:57;;;;;;;7.10;3.70;;;;;;;6.79;51.28;99298.53;4375135;32;34753;-88
2023/04/27 02:10:25;;;;;;;7.60;3.95;;;;;;;6.89;51.66;99304.81;4361774;32;32441;-90
2023/04/27 02:12:55;;;;;;;6.93;3.40;;;;;;;6.71;52.13;99310.31;4365378;32;34085;-86
2023/04/27 02:15:23;;;;;;;6.40;3.80;;;;;;;6.74;52.22;99314.66;4374582;32;33856;-85
2023/04/27 02:17:51;;;;;;;7.35;3.75;;;;;;;6.63;52.45;99309.22;4376947;32;34207;-88
2023/04/27 02:20:18;;;;;;;8.05;3.55;;;;;;;6.45;52.64;99314.66;4364130;32;33744;-92
2023/04/27 02:22:45;;;;;;;7.65;4.25;;;;;;;6.40;53.00;99310.16;4373163;32;32655;-88
2023/04/27 02:25:14;;;;;;;9.02;4.07;;;;;;;6.29;53.35;99322.72;4372117;32;33888;-95
2023/04/27 02:27:42;;;;;;;7.47;4.22;;;;;;;6.38;53.15;99324.72;4377292;32;33391;-94
2023/04/27 02:30:11;;;;;;;7.32;4.37;;;;;;;6.09;53.73;99322.94;4366251;32;34001;-90
2023/04/27 02:32:40;;;;;;;8.57;4.50;;;;;;;6.26;53.38;99315.78;4368611;32;34124;-91
2023/04/27 02:35:08;;;;;;;10.38;4.82;;;;;;;5.69;55.35;99328.41;4358051;32;34656;-87
2023/04/27 02:37:36;;;;;;;8.05;4.30;;;;;;;5.51;55.81;99331.22;4376951;32;34568;-96
2023/04/27 02:40:06;;;;;;;8.65;3.90;;;;;;;5.93;54.61;99335.25;4374627;32;34631;-88
2023/04/27 02:42:34;;;;;;;7.72;4.18;;;;;;;5.50;54.43;99331.16;4370693;32;35192;-94
2023/04/27 02:45:02;;;;;;;9.20;4.15;;;;;;;6.16;53.57;99339.47;4366344;32;34013;-85
2023/04/27 02:47:31;;;;;;;9.43;4.65;;;;;;;5.93;54.55;99345.53;4363264;32;32677;-84
2023/04/27 02:50:00;;;;;;;9.10;4.85;;;;;;;5.95;54.36;99333.62;4375133;32;33632;-85
2023/04/27 02:52:27;;;;;;;6.95;4.10;;;;;;;6.30;53.71;99335.63;4374004;32;34332;-94
2023/04/27 02:54:54;;;;;;;7.75;4.10;;;;;;;6.11;53.90;99341.00;4369141;32;35059;-95
2023/04/27 02:57:22;;;;;;;8.65;4.50;;;;;;;6.15;53.81;99337.72;4375779;32;33150;-86
2023/04/27 02:59:50;;;;;;;7.43;4.00;;;;;;;6.46;52.83;99344.72;4375284;32;34148;-88
2023/04/27 03:02:17;;;;;;;7.05;4.30;;;;;;;6.42;53.72;99340.31;4365408;32;34121;-94
2023/04/27 03:04:45;;;;;;;9.75;4.57;;;;;;;6.35;53.39;99348.66;4376017;32;33969;-94
2023/04/27 03:07:13;;;;;;;8.90;4.68;;;;;;;6.24;53.39;99353.44;4376585;32;33769;-92
2023/04/27 03:09:40;;;;;;;8.20;4.60;;;;;;;6.28;53.53;99350.16;4376836;32;33816;-95
2023/04/27 03:12:08;;;;;;;9.45;4.87;;;;;;;6.41;53.43;99354.00;4364049;32;33848;-85
2023/04/27 03:14:35;;;;;;;7.75;4.10;;;;;;;6.43;53.30;99349.78;4372017;32;32886;-85
2023/04/27 03:17:02;;;;;;;9.57;4.47;;;;;;;6.53;52.85;99353.53;4376181;32;34451;-95
2023/04/27 03:19:30;;;;;;;9.02;4.97;;;;;;;6.32;53.46;99359.72;4376604;32;33954;-86
2023/04/27 03:21:57;;;;;;;10.30;4.62;;;;;;;6.33;53.40;99353.78;4365074;32;34597;-90
2023/04/27 03:24:25;;;;;;;7.20;4.43;;;;;;;6.13;53.36;99362.50;4372645;32;33899;-87
2023/04/27 03:26:53;;;;;;;10.02;4.85;;;;;;;6.24;53.09;99361.16;4376201;32;33916;-96
2023/04/27 03:29:20;;;;;;;8.88;4.93;;;;;;;6.46;52.93;99365.31;4376626;32;34595;-89
2023/04/27 03:31:47;;;;;;;9.65;5.25;;;;;;;6.31;53.81;99365.69;4372853;32;34285;-86
2023/04/27 03:34:15;;;;;;;8.23;5.10;;;;;;;6.09;54.57;99365.81;4366623;32;34399;-94
2023/04/27 03:36:43;;;;;;;9.45;4.50;;;;;;;6.33;53.81;99358.91;4362264;32;32162;-92
2023/04/27 03:39:11;;;;;;;11.18;4.65;;;;;;;6.78;52.93;99366.34;4364653;32;33649;-88
2023/04/27 03:41:39;;;;;;;7.57;4.95;;;;;;;6.37;53.72;99374.47;4369033;32;35151;-86
2023/04/27 03:44:06;;;;;;;11.90;4.87;;;;;;;6.02;53.89;99375.06;4372483;32;33788;-91
2023/04/27 03:46:34;;;;;;;7.30;4.55;;;;;;;6.24;54.21;99368.91;4374647;32;34627;-92
2023/04/27 03:49:02;;;;;;;11.68;5.55;;;;;;;6.20;54.10;99382.50;4370832;32;34759;-86
2023/04/27 03:51:33;;;;;;;8.23;4.90;;;;;;;5.80;55.56;99381.09;4368577;32;33821;-87
2023/04/27 03:54:00;;;;;;;9.82;4.87;;;;;;;6.17;54.71;99382.38;4371256;32;34132;-88
2023/04/27 03:56:28;;;;;;;8.18;4.60;;;;;;;6.46;53.61;99382.47;4372370;32;33807;-87
2023/04/27 03:58:56;;;;;;;9.95;5.47;;;;;;;6.29;54.19;99381.94;4372891;32;33928;-92
2023/04/27 04:01:25;;;;;;;10.80;5.10;;;;;;;6.17;54.00;99382.38;4369138;32;34239;-86
2023/04/27 04:03:53;;;;;;;9.25;4.72;;;;;;;6.13;54.65;99385.69;4367340;32;34328;-96
2023/04/27 04:06:20;;;;;;;8.10;4.32;;;;;;;6.29;54.20;99381.94;4368310;32;33796;-85
2023/04/27 04:08:48;;;;;;;10.05;4.50;;;;;;;6.52;53.85;99388.72;4362398;32;33882;-93
2023/04/27 04:11:16;;;;;;;9.15;5.15;;;;;;;6.63;53.42;99389.06;4367043;32;33855;-93
2023/04/27 04:13:43;;;;;;;9.10;4.53;;;;;;;6.63;53.99;99390.75;4367935;32;34723;-95
2023/04/27 04:16:12;;;;;;;8.00;4.50;;;;;;;6.74;53.62;99390.28;4375399;32;33536;-87
2023/04/27 04:18:40;;;;;;;9.85;5.12;;;;;;;6.79;53.62;99393.88;4367376;32;33562;-96
2023/04/27 04:21:09;;;;;;;6.75;4.45;;;;;;;6.81;53.78;99393.91;4374065;32;33963;-84
2023/04/27 04:23:39;;;;;;;7.20;4.07;;;;;;;7.27;53.61;99397.88;4354974;32;34281;-88
2023/04/27 04:26:08;;;;;;;8.75;4.20;;;;;;;7.48;52.19;99395.94;4349072;32;34258;-85
2023/04/27 04:28:36;;;;;;;10.40;5.22;;;;;;;7.71;51.86;99399.16;4365772;32;34776;-93
2023/04/27 04:31:04;;;;;;;10.18;3.90;;;;;;;8.09;51.32;99403.62;4373081;32;33987;-93
2023/04/27 04:33:32;;;;;;;7.03;3.45;;;;;;;8.77;50.00;99410.53;4369576;32;33658;-95
2023/04/27 04:36:03;;;;;;;7.97;4.12;;;;;;;9.25;49.28;99396.97;4355355;32;33942;-85
2023/04/27 04:38:31;;;;;;;8.02;3.67;;;;;;;9.65;47.74;99396.94;4370151;32;35014;-92
2023/04/27 04:40:59;;;;;;;7.97;3.90;;;;;;;9.86;47.22;99401.66;4376410;32;33722;-92
2023/04/27 04:43:30;;;;;;;7.57;4.00;;;;;;;10.23;44.54;99396.31;4369515;32;34677;-84
2023/04/27 04:45:58;;;;;;;7.35;4.37;;;;;;;10.66;45.99;99397.06;4372310;32;32394;-91
2023/04/27 04:48:27;;;;;;;7.25;3.80;;;;;;;10.47;44.83;99398.50;4373045;32;33881;-93
2023/04/27 04:50:56;;;;;;;6.85;3.58;;;;;;;10.67;44.32;99393.63;4369934;32;34264;-90
2023/04/27 04:53:23;;;;;;;8.15;3.55;;;;;;;11.37;42.98;99392.91;4373362;32;33967;-88
2023/04/27 04:55:51;;;;;;;7.90;3.37;;;;;;;11.75;43.75;99397.72;4379615;32;33457;-90
2023/04/27 04:58:18;;;;;;;6.60;3.28;;;;;;;11.54;41.57;99396.59;4375202;32;34697;-93
2023/04/27 05:00:47;;;;;;;9.07;4.20;;;;;;;11.92;40.83;99406.59;4354622;32;34538;-92
2023/04/27 05:03:15;;;;;;;11.70;3.47;;;;;;;11.00;40.27;99405.38;4365198;32;34352;-94
2023/04/27 05:05:43;;;;;;;10.35;3.20;;;;;;;11.38;40.06;99402.44;4371776;32;33259;-93
2023/04/27 05:08:10;;;;;;;10.38;3.72;;;;;;;11.89;39.02;99398.75;4362396;32;33691;-93
2023/04/27 05:10:38;;;;;;;6.22;2.95;;;;;;;11.97;37.97;99399.75;4368677;32;34878;-93
2023/04/27 05:13:06;;;;;;;7.62;3.30;;;;;;;12.10;37.13;99400.72;4365811;32;34194;-91
2023/04/27 05:15:36;;;;;;;6.72;3.00;;;;;;;12.18;37.34;99401.69;4380983;32;33356;-85
2023/04/27 05:18:04;;;;;;;8.68;3.35;;;;;;;12.61;37.58;99400.34;4384184;32;34125;-84
2023/04/27 05:20:35;;;;;;;6.97;3.08;;;;;;;12.08;38.50;99412.81;4380421;32;33724;-92
2023/04/27 05:23:03;;;;;;;7.50;2.80;;;;;;;12.51;36.04;99406.31;4376475;32;34586;-85
2023/04/27 05:25:31;;;;;;;9.38;2.92;;;;;;;12.99;36.04;99410.16;4366877;32;33940;-91
2023/04/27 05:27:59;;;;;;;5.85;2.67;;;;;;;12.28;37.51;99421.72;4365278;32;34069;-91
2023/04/27 05:30:27;;;;;;;6.68;2.75;;;;;;;12.74;36.14;99419.53;4364753;32;34145;-87
2023/04/27 05:32:54;;;;;;;9.88;3.05;;;;;;;13.11;35.57;99415.47;4360844;32;34923;-84
2023/04/27 05:35:22;;;;;;;6.15;3.08;;;;;;;13.34;35.68;99417.38;4375090;32;33732;-84
2023/04/27 05:37:52;;;;;;;6.30;2.85;;;;;;;12.81;35.08;99421.31;4371169;32;34384;-88
2023/04/27 05:40:19;;;;;;;8.10;3.30;;;;;;;12.79;35.27;99420.41;4344249;32;34032;-89
2023/04/27 05:42:47;;;;;;;6.15;2.92;;;;;;;12.37;35.52;99419.19;4373769;32;34914;-84
2023/04/27 05:45:15;;;;;;;7.85;3.25;;;;;;;12.65;36.34;99422.94;4378179;32;33806;-93
2023/04/27 05:47:43;;;;;;;9.68;3.28;;;;;;;12.62;36.67;99433.31;4363077;32;33652;-94
2023/04/27 05:50:10;;;;;;;7.15;2.92;;;;;;;12.88;36.85;99432.66;4361392;32;33728;-83
2023/04/27 05:52:38;;;;;;;5.32;2.10;;;;;;;12.05;36.88;99428.41;4362631;32;34875;-89
2023/04/27 05:55:07;;;;;;;8.35;2.75;;;;;;;11.69;35.41;99433.12;4375834;32;33764;-88
2023/04/27 05:57:35;;;;;;;7.00;2.62;;;;;;;11.28;37.63;99440.38;4367145;32;33797;-85
2023/04/27 06:00:09;;;;;;;7.20;2.50;;;;;;;12.05;34.23;99437.06;4370328;32;33772;-90
2023/04/27 06:02:38;;;;;;;7.47;3.00;;;;;;;11.32;35.26;99443.88;4361476;32;34244;-82
2023/04/27 06:05:06;;;;;;;7.28;2.80;;;;;;;11.31;36.70;99444.75;4362775;32;33682;-89
2023/04/27 06:07:36;;;;;;;7.43;2.45;;;;;;;11.66;37.65;99443.47;4360860;32;34458;-84
2023/04/27 06:10:04;;;;;;;5.50;2.45;;;;;;;11.44;38.08;99451.87;4348317;32;34925;-88
2023/04/27 06:12:32;;;;;;;10.13;2.92;;;;;;;11.54;36.35;99442.47;4360778;32;34187;-83
2023/04/27 06:15:02;;;;;;;5.95;2.50;;;;;;;12.01;35.36;99450.88;4366887;32;34335;-84
2023/04/27 06:17:30;;;;;;;10.13;2.53;;;;;;;11.57;35.34;99447.69;4376147;32;33942;-87
2023/04/27 06:19:58;;;;;;;8.35;3.15;;;;;;;11.45;37.50;99454.47;4373158;32;34547;-84
2023/04/27 06:22:26;;;;;;;8.55;2.92;;;;;;;11.17;37.06;99457.50;4341043;32;33906;-83
2023/04/27 06:24:53;;;;;;;5.97;2.80;;;;;;;11.35;37.19;99459.50;4360599;32;33290;-83
2023/04/27 06:27:21;;;;;;;7.97;2.83;;;;;;;11.41;34.88;99455.28;4372367;32;33950;-84
2023/04/27 06:29:48;;;;;;;9.15;2.78;;;;;;;11.48;36.82;99456.25;4373169;32;34447;-85
2023/04/27 06:32:16;;;;;;;14.95;2.95;;;;;;;11.39;36.24;99461.28;4360679;32;34318;-89
2023/04/27 06:34:44;;;;;;;7.62;2.92;;;;;;;11.78;35.17;99447.09;4367918;32;34703;-83
2023/04/27 06:37:14;;;;;;;11.27;3.00;;;;;;;11.74;35.88;99456.56;4375912;32;33213;-89
2023/04/27 06:39:45;;;;;;;5.45;2.37;;;;;;;11.71;36.38;99460.87;4363841;32;35050;-83
2023/04/27 06:42:13;;;;;;;8.95;3.28;;;;;;;11.48;35.41;99448.47;4347302;32;34304;-89
2023/04/27 06:44:41;;;;;;;8.90;2.83;;;;;;;11.63;35.89;99453.84;4365819;32;34471;-82
2023/04/27 06:47:08;;;;;;;5.40;2.12;;;;;;;12.11;34.18;99444.91;4361230;32;33993;-82
2023/04/27 06:49:36;;;;;;;6.12;2.08;;;;;;;12.72;34.58;99457.66;4350201;32;35110;-84
2023/04/27 06:52:04;;;;;;;6.60;2.00;;;;;;;12.66;32.36;99461.09;4374648;32;34131;-88
2023/04/27 06:54:31;;;;;;;7.60;2.33;;;;;;;12.77;31.01;99465.50;4361194;32;34209;-94
2023/04/27 06:57:00;;;;;;;6.20;2.25;;;;;;;12.77;31.84;99470.72;4355227;32;184258;-83
2023/04/27 06:59:28;;;;;;;6.00;2.17;;;;;;;12.91;31.40;99476.88;4360556;32;33960;-83
2023/04/27 07:01:55;;;;;;;5.20;1.92;;;;;;;12.89;31.89;99470.81;4360780;32;35242;-83
2023/04/27 07:04:23;;;;;;;6.70;2.12;;;;;;;13.12;30.69;99466.66;4360794;32;34228;-83
2023/04/27 07:06:51;;;;;;;7.47;2.50;;;;;;;13.38;30.75;99466.00;4360315;32;33655;-83
2023/04/27 07:09:18;;;;;;;6.07;2.10;;;;;;;13.14;30.39;99467.56;4368410;32;35056;-83
2023/04/27 07:11:54;;;;;;;7.78;2.90;;;;;;;13.35;30.49;99461.63;4375039;32;33876;-83
2023/04/27 07:14:24;;;;;;;6.68;1.90;;;;;;;13.22;30.64;99467.59;4375485;32;33652;-83
2023/04/27 07:16:52;;;;;;;6.85;1.95;;;;;;;13.85;29.41;99457.53;4375066;32;33997;-83
2023/04/27 07:19:20;;;;;;;4.87;2.00;;;;;;;13.49;30.16;99469.53;4375065;32;34950;-83
2023/04/27 07:21:47;;;;;;;6.78;2.28;;;;;;;13.84;29.68;99468.84;4374946;32;33950;-84
2023/04/27 07:24:15;;;;;;;8.15;2.50;;;;;;;14.40;28.44;99470.78;4375004;32;33562;-82
2023/04/27 07:26:42;;;;;;;6.35;1.70;;;;;;;14.79;27.77;99466.50;4374941;32;34577;-83
2023/04/27 07:29:12;;;;;;;7.45;2.70;;;;;;;14.41;27.41;99464.69;4347850;32;32565;-83
2023/04/27 07:31:54;;;;;;;6.57;2.37;;;;;;;13.99;28.77;99466.28;4360353;32;35052;-83
2023/04/27 07:34:22;;;;;;;5.85;1.83;;;;;;;14.21;27.57;99474.19;4360035;32;33902;-83
2023/04/27 07:36:52;;;;;;;5.55;1.60;;;;;;;13.96;26.34;99474.09;4360211;32;33964;-82
2023/04/27 07:39:21;;;;;;;5.10;1.83;;;;;;;13.70;27.14;99467.91;4360385;32;35068;-83
2023/04/27 07:41:49;;;;;;;4.75;1.75;;;;;;;13.30;27.97;99472.91;4360050;32;34674;-83
2023/04/27 07:44:17;;;;;;;3.62;1.73;;;;;;;14.08;27.56;99468.06;4361062;32;33362;-90
2023/04/27 07:46:47;;;;;;;6.28;2.00;;;;;;;13.62;27.00;99473.94;4361639;32;34873;-84
2023/04/27 07:49:15;;;;;;;6.47;2.20;;;;;;;13.56;28.68;99473.03;4361821;32;34285;-88
2023/04/27 07:51:42;;;;;;;6.05;1.80;;;;;;;13.37;30.05;99474.66;4363111;32;34298;-85
2023/04/27 07:54:10;;;;;;;5.65;2.08;;;;;;;13.50;31.08;99473.88;4361825;32;33422;-83
2023/04/27 07:56:40;;;;;;;8.38;2.20;;;;;;;13.00;31.54;99469.16;4362814;32;33611;-84
2023/04/27 07:59:08;;;;;;;6.20;1.77;;;;;;;12.80;30.96;99470.72;4361975;32;34048;-84
2023/04/27 08:01:36;;;;;;;6.40;1.77;;;;;;;12.57;30.17;99479.19;4361999;32;33954;-85
2023/04/27 08:04:04;;;;;;;9.15;2.12;;;;;;;13.01;30.09;99481.31;4348414;32;33874;-83
2023/04/27 08:06:32;;;;;;;4.22;1.80;;;;;;;12.26;30.91;99482.34;4362025;32;34478;-83
2023/04/27 08:09:02;;;;;;;7.80;1.90;;;;;;;12.97;30.63;99481.28;4362204;32;34193;-87
2023/04/27 08:11:30;;;;;;;5.82;2.30;;;;;;;13.12;29.82;99482.28;4361590;32;34146;-94
2023/04/27 08:13:58;;;;;;;7.32;1.92;;;;;;;12.77;30.43;99479.38;4347914;32;34839;-85
2023/04/27 08:16:26;;;;;;;6.10;1.60;;;;;;;13.47;30.55;99478.19;4361376;32;34735;-92
2023/04/27 08:18:54;;;;;;;5.03;1.85;;;;;;;13.08;29.16;99480.50;4361488;32;34783;-84
2023/04/27 08:21:23;;;;;;;6.53;1.85;;;;;;;13.44;28.08;99476.44;4361439;32;34035;-83
2023/04/27 08:23:50;;;;;;;8.57;2.50;;;;;;;12.93;28.59;99480.38;4362608;32;33329;-84
2023/04/27 08:26:18;;;;;;;6.03;2.05;;;;;;;12.57;30.06;99486.12;4361603;32;34125;-82
2023/04/27 08:28:46;;;;;;;7.00;2.00;;;;;;;12.62;30.29;99487.91;4361358;32;34114;-83
2023/04/27 08:31:13;;;;;;;5.37;1.55;;;;;;;12.70;29.64;99476.72;4361333;32;34943;-83
2023/04/27 08:33:41;;;;;;;5.20;1.55;;;;;;;13.03;28.59;99479.62;4335646;32;32097;-82
2023/04/27 08:36:09;;;;;;;5.30;1.90;;;;;;;13.02;29.90;99487.38;4361147;32;34008;-83
2023/04/27 08:38:36;;;;;;;4.62;1.80;;;;;;;12.83;29.09;99488.97;4361678;32;34369;-83
2023/04/27 08:41:04;;;;;;;4.75;1.80;;;;;;;13.10;29.63;99477.91;4374707;32;34729;-83
2023/04/27 08:43:48;;;;;;;6.53;2.00;;;;;;;13.27;29.99;99478.94;4370727;32;34294;-83
2023/04/27 08:46:20;;;;;;;5.80;1.80;;;;;;;13.29;28.30;99484.16;4347781;32;34502;-83
2023/04/27 08:48:52;;;;;;;6.03;1.80;;;;;;;13.58;27.64;99480.00;4361116;32;34202;-83
2023/04/27 08:51:20;;;;;;;7.70;1.95;;;;;;;13.84;28.28;99476.66;4361482;32;34493;-83
2023/04/27 08:53:53;;;;;;;5.72;1.80;;;;;;;13.87;27.22;99472.34;4361318;32;34307;-92
2023/04/27 08:56:24;;;;;;;10.50;1.92;;;;;;;13.72;26.87;99479.22;4347041;32;33620;-82
2023/04/27 08:58:51;;;;;;;4.30;1.80;;;;;;;13.95;26.85;99461.06;4347829;32;33710;-83
2023/04/27 09:01:19;;;;;;;5.85;1.65;;;;;;;13.77;26.84;99456.66;4361094;32;34944;-83
2023/04/27 09:03:47;;;;;;;4.85;1.90;;;;;;;14.06;29.43;99464.59;4347790;32;33503;-83
2023/04/27 09:06:15;;;;;;;4.47;1.65;;;;;;;14.00;26.82;99457.59;4361931;32;34019;-83
2023/04/27 09:08:47;;;;;;;6.37;1.67;;;;;;;13.59;26.32;99452.22;4361150;32;34179;-89
2023/04/27 09:11:36;;;;;;;7.75;1.90;;;;;;;13.92;26.83;99456.72;4347990;32;34683;-83
2023/04/27 09:14:18;;;;;;;5.72;1.92;;;;;;;13.78;28.17;99466.19;4368289;32;34587;-84
2023/04/27 09:16:54;;;;;;;9.98;2.03;;;;;;;14.47;28.87;99461.19;4376208;32;34003;-88
2023/04/27 09:19:26;;;;;;;6.28;1.77;;;;;;;14.35;27.26;99452.47;4361666;32;33816;-86
2023/04/27 09:22:09;;;;;;;8.30;2.10;;;;;;;14.60;26.19;99460.41;4347760;32;34215;-83
2023/04/27 09:24:37;;;;;;;7.25;2.03;;;;;;;15.11;27.17;99460.37;4361237;32;33655;-84
2023/04/27 09:27:06;;;;;;;5.55;1.65;;;;;;;15.55;25.08;99449.88;4361283;32;34079;-93
2023/04/27 09:29:35;;;;;;;5.87;1.75;;;;;;;15.14;26.91;99452.56;4361302;32;35015;-84
2023/04/27 09:32:15;;;;;;;7.47;1.80;;;;;;;14.33;26.56;99442.94;4361648;32;34283;-84
2023/04/27 09:34:44;;;;;;;6.30;1.75;;;;;;;14.33;27.70;99437.72;4366506;32;34517;-87
2023/04/27 09:37:13;;;;;;;7.43;1.80;;;;;;;14.68;26.68;99434.31;4375811;32;33930;-83
2023/04/27 09:39:41;;;;;;;5.43;2.05;;;;;;;15.02;26.00;99440.38;4362380;32;35145;-85
2023/04/27 09:42:10;;;;;;;5.80;1.70;;;;;;;14.24;25.69;99429.84;4362406;32;34176;-84
2023/04/27 09:44:38;;;;;;;5.60;1.70;;;;;;;14.05;26.24;99442.88;4375813;32;33420;-84
2023/04/27 09:47:06;;;;;;;8.00;2.10;;;;;;;15.24;26.40;99429.03;4376313;32;33540;-93
2023/04/27 09:49:34;;;;;;;4.25;1.70;;;;;;;14.75;27.25;99436.91;4376613;32;33811;-93
2023/04/27 09:52:02;;;;;;;4.22;1.70;;;;;;;15.09;26.58;99434.28;4376602;32;34693;-92
2023/04/27 09:54:31;;;;;;;5.55;1.83;;;;;;;15.42;25.57;99433.38;4376539;32;34269;-86
2023/04/27 09:57:07;;;;;;;5.15;1.55;;;;;;;14.95;25.83;99436.91;4363210;32;34108;-83
2023/04/27 10:00:19;;;;;;;5.80;1.90;;;;;;;15.33;26.40;99429.00;4376335;32;35027;-92
2023/04/27 10:03:21;;;;;;;6.70;1.77;;;;;;;15.18;26.59;99428.19;4376143;32;34957;-83
2023/04/27 10:06:23;;;;;;;11.77;2.40;;;;;;;15.32;26.86;99429.03;4351530;32;33410;-92
2023/04/27 10:08:50;;;;;;;5.75;2.00;;;;;;;15.28;25.64;99428.16;4330996;32;33945;-86
2023/04/27 10:11:18;;;;;;;7.32;2.25;;;;;;;15.56;24.72;99415.00;4348094;32;35179;-84
2023/04/27 10:13:53;;;;;;;6.97;1.98;;;;;;;15.31;26.60;99419.47;4361298;32;34159;-84
2023/04/27 10:16:23;;;;;;;5.37;1.92;;;;;;;15.78;25.42;99421.06;4348142;32;33624;-90
2023/04/27 10:18:54;;;;;;;7.40;1.83;;;;;;;15.94;25.51;99414.87;4361392;32;33321;-83
2023/04/27 10:21:22;;;;;;;4.80;2.17;;;;;;;15.75;25.01;99410.62;4361279;32;34828;-84
2023/04/27 10:23:51;;;;;;;6.30;1.87;;;;;;;15.35;25.73;99410.75;4361404;32;34288;-93
2023/04/27 10:26:26;;;;;;;4.90;1.70;;;;;;;15.52;26.04;99408.94;4347946;32;33282;-84
2023/04/27 10:29:08;;;;;;;5.55;1.75;;;;;;;16.01;26.13;99419.22;4347870;32;34137;-93
2023/04/27 10:31:42;;;;;;;6.22;1.83;;;;;;;15.70;26.91;99415.00;4347962;32;33948;-92
2023/04/27 10:34:15;;;;;;;4.90;2.20;;;;;;;16.15;25.49;99410.44;4367871;32;34880;-94
2023/04/27 10:36:44;;;;;;;5.07;2.00;;;;;;;16.10;25.95;99412.19;4363367;32;33823;-91
2023/04/27 10:39:17;;;;;;;4.82;2.00;;;;;;;16.23;24.35;99408.63;4361214;32;33600;-83
2023/04/27 10:41:57;;;;;;;7.25;2.87;;;;;;;15.90;26.08;99409.69;4361308;32;33944;-93
2023/04/27 10:44:27;;;;;;;7.72;2.03;;;;;;;15.69;25.71;99406.31;4360911;32;34290;-84
2023/04/27 10:46:58;;;;;;;9.45;2.62;;;;;;;15.56;26.78;99426.34;4360987;32;34301;-93
2023/04/27 10:49:29;;;;;;;5.85;2.00;;;;;;;15.39;27.63;99425.53;4361348;32;34736;-92
2023/04/27 10:51:58;;;;;;;6.60;2.00;;;;;;;15.03;25.83;99424.72;4360966;32;34132;-85
2023/04/27 10:54:27;;;;;;;9.18;2.58;;;;;;;15.51;29.14;99411.56;4360934;32;34213;-94
2023/04/27 10:57:08;;;;;;;6.20;2.17;;;;;;;15.29;27.32;99416.84;4361107;32;34036;-90
2023/04/27 10:59:49;;;;;;;7.10;2.67;;;;;;;15.93;26.73;99420.13;4361336;32;33982;-84
2023/04/27 11:02:25;;;;;;;4.93;2.03;;;;;;;15.77;26.23;99419.34;4361017;32;35023;-84
2023/04/27 11:04:53;;;;;;;8.60;2.35;;;;;;;16.37;25.04;99412.03;4361040;32;34253;-93
2023/04/27 11:07:26;;;;;;;7.60;2.45;;;;;;;15.75;26.76;99411.47;4370509;32;33309;-92
2023/04/27 11:09:54;;;;;;;6.50;2.00;;;;;;;15.95;28.85;99416.66;4362434;32;34548;-88
2023/04/27 11:12:22;;;;;;;10.07;2.33;;;;;;;16.24;25.98;99418.22;4375943;32;35048;-87
2023/04/27 11:14:56;;;;;;;7.80;2.17;;;;;;;15.64;28.61;99408.00;4375472;32;34949;-92
2023/04/27 11:17:31;;;;;;;4.68;2.12;;;;;;;15.98;27.56;99407.88;4375304;32;33567;-93
2023/04/27 11:19:58;;;;;;;9.52;2.40;;;;;;;15.92;28.68;99414.03;4361857;32;33344;-92
2023/04/27 11:22:26;;;;;;;5.03;1.77;;;;;;;15.45;27.27;99417.66;4374435;32;33783;-92
2023/04/27 11:24:53;;;;;;;4.80;1.92;;;;;;;15.79;26.40;99407.13;4376195;32;34424;-93
2023/04/27 11:27:22;;;;;;;5.53;1.60;;;;;;;15.90;27.61;99404.44;4362062;32;33833;-84
2023/04/27 11:29:49;;;;;;;6.07;2.42;;;;;;;15.98;26.38;99407.88;4375298;32;33503;-89
2023/04/27 11:32:22;;;;;;;8.27;3.28;;;;;;;16.13;27.09;99405.19;4375436;32;35105;-86
2023/04/27 11:34:51;;;;;;;6.03;2.10;;;;;;;16.20;25.24;99408.66;4361953;32;33994;-86
2023/04/27 11:37:25;;;;;;;7.15;2.50;;;;;;;15.97;25.10;99414.87;4375293;32;33675;-87
2023/04/27 11:39:53;;;;;;;7.03;2.10;;;;;;;16.52;25.93;99411.94;4375912;32;33533;-88
2023/04/27 11:42:21;;;;;;;5.78;2.12;;;;;;;16.25;26.35;99401.63;4372856;32;34118;-89
2023/04/27 11:44:54;;;;;;;7.85;2.42;;;;;;;15.97;27.36;99412.25;4375139;32;34991;-83
2023/04/27 11:47:26;;;;;;;4.28;1.95;;;;;;;16.09;27.72;99410.47;4375484;32;34629;-92